Time;durP1;ratioP1;P1;durP2;ratioP2;P2;SDS_P1;SDS_P2;PMS_P1;PMS_P2;Temp;Humidity;BMP_temperature;BMP_pressure;BME280_temperature;BME280_humidity;BME280_pressure;Samples;Min_cycle;Max_cycle;Signal;HPM_P1;HPM_P2
2021/07/30 14:46:47;;;;;;;12.15;6.53;;;;;;;29.33;39.72;95456.88;5104989;27;2145869;-73
2021/07/30 14:49:14;;;;;;;11.27;5.75;;;;;;;29.32;39.53;95450.69;5153773;27;20107;-69
2021/07/30 14:51:41;;;;;;;13.30;6.47;;;;;;;29.22;39.96;95451.38;5137878;27;20092;-70
2021/07/30 14:54:09;;;;;;;10.35;6.18;;;;;;;29.46;39.93;95456.22;5131844;28;20039;-68
2021/07/30 14:56:34;;;;;;;10.65;5.75;;;;;;;29.21;40.31;95433.56;5131618;28;20487;-73
2021/07/30 14:59:00;;;;;;;9.57;5.95;;;;;;;28.97;41.03;95451.16;5113695;28;20051;-69
2021/07/30 15:01:26;;;;;;;12.88;6.50;;;;;;;28.97;39.55;95446.53;5131566;28;20260;-69
2021/07/30 15:03:55;;;;;;;11.57;6.10;;;;;;;29.01;40.11;95452.00;5114478;28;20039;-69
2021/07/30 15:06:21;;;;;;;10.32;6.25;;;;;;;28.79;41.04;95448.28;5118150;28;20040;-70
2021/07/30 15:08:46;;;;;;;11.10;6.43;;;;;;;28.92;40.66;95454.19;5130591;28;20040;-75
2021/07/30 15:11:12;;;;;;;11.20;7.47;;;;;;;29.02;40.95;95459.72;5128936;27;20031;-78
2021/07/30 15:13:38;;;;;;;14.63;6.82;;;;;;;28.89;41.15;95454.91;5138278;28;20437;-78
2021/07/30 15:16:04;;;;;;;10.23;5.82;;;;;;;28.95;41.13;95451.56;5137057;27;20046;-78
2021/07/30 15:18:31;;;;;;;11.75;6.90;;;;;;;29.15;41.13;95456.75;5125268;28;20138;-78
2021/07/30 15:20:58;;;;;;;12.90;6.73;;;;;;;29.42;40.58;95460.06;5145321;27;20051;-79
2021/07/30 15:23:27;;;;;;;9.98;6.00;;;;;;;28.98;41.13;95447.31;5146762;28;20055;-76
2021/07/30 15:25:55;;;;;;;11.77;6.18;;;;;;;29.03;41.61;95458.56;5138666;28;20035;-81
2021/07/30 15:28:21;;;;;;;10.35;6.55;;;;;;;29.10;41.60;95460.56;5143221;28;20054;-80
2021/07/30 15:30:46;;;;;;;10.93;6.28;;;;;;;29.24;41.56;95454.50;5122481;28;20039;-79
2021/07/30 15:33:12;;;;;;;13.98;6.50;;;;;;;29.12;41.74;95452.88;5142171;28;20050;-79
2021/07/30 15:35:39;;;;;;;16.38;7.50;;;;;;;29.14;41.00;95455.19;5143790;28;20035;-84
2021/07/30 15:38:14;;;;;;;13.18;7.03;;;;;;;28.91;41.52;95458.06;5130567;27;20050;-83
2021/07/30 15:40:40;;;;;;;10.52;6.65;;;;;;;28.93;41.66;95450.31;5146622;27;20027;-85
2021/07/30 15:43:05;;;;;;;10.60;5.93;;;;;;;28.90;41.55;95446.44;5143235;27;20108;-83
2021/07/30 15:45:31;;;;;;;11.73;6.88;;;;;;;29.02;41.35;95443.50;5126531;28;20126;-81
2021/07/30 15:48:04;;;;;;;10.35;6.55;;;;;;;28.74;45.35;95437.78;5127168;28;20047;-83
2021/07/30 15:50:30;;;;;;;11.38;6.40;;;;;;;28.16;49.52;95455.25;5143880;27;20379;-82
2021/07/30 15:52:56;;;;;;;13.82;7.40;;;;;;;27.30;53.54;95474.81;5145329;28;20065;-82
2021/07/30 15:55:25;;;;;;;12.10;7.40;;;;;;;26.66;54.31;95487.16;5145462;28;20179;-82
2021/07/30 15:57:51;;;;;;;20.67;9.00;;;;;;;25.30;70.47;95529.91;5138509;28;20103;-83
2021/07/30 16:00:18;;;;;;;16.20;9.07;;;;;;;22.02;82.12;95522.94;5132978;28;20051;-84
2021/07/30 16:02:46;;;;;;;21.17;10.80;;;;;;;21.51;88.99;95491.13;5114892;28;20059;-85
2021/07/30 16:05:12;;;;;;;17.92;10.95;;;;;;;21.45;89.16;95483.28;5114443;28;20044;-84
2021/07/30 16:07:37;;;;;;;18.85;10.88;;;;;;;21.43;88.46;95484.72;5132109;28;20111;-85
2021/07/30 16:10:03;;;;;;;16.98;9.57;;;;;;;21.41;87.93;95492.25;5114581;28;20043;-84
2021/07/30 16:12:31;;;;;;;19.25;11.80;;;;;;;21.45;89.71;95482.50;5133338;28;20027;-85
2021/07/30 16:15:01;;;;;;;19.58;11.77;;;;;;;21.21;85.64;95481.16;5134904;28;20159;-84
2021/07/30 16:17:29;;;;;;;16.92;9.15;;;;;;;21.12;86.20;95475.03;5114127;28;20044;-84
2021/07/30 16:19:56;;;;;;;21.38;12.85;;;;;;;21.19;89.41;95480.66;5131736;28;20047;-84
2021/07/30 16:22:21;;;;;;;19.25;10.52;;;;;;;21.38;87.19;95476.88;5133406;28;20039;-85
2021/07/30 16:24:47;;;;;;;17.48;9.60;;;;;;;21.28;88.77;95487.91;5111861;28;20146;-85
2021/07/30 16:27:13;;;;;;;19.50;11.55;;;;;;;21.01;92.99;95502.47;5131547;28;20105;-85
2021/07/30 16:29:40;;;;;;;18.83;10.80;;;;;;;20.97;93.65;95499.63;5133940;28;20044;-85
2021/07/30 16:32:09;;;;;;;20.90;13.07;;;;;;;20.93;95.56;95504.03;5135899;28;20073;-84
2021/07/30 16:34:38;;;;;;;21.48;12.20;;;;;;;20.98;93.26;95526.03;5138265;28;20551;-84
2021/07/30 16:37:03;;;;;;;20.52;12.10;;;;;;;20.90;94.00;95550.13;5116115;28;20060;-85
2021/07/30 16:39:29;;;;;;;19.65;11.80;;;;;;;20.82;92.63;95561.63;5135435;28;20057;-84
2021/07/30 16:41:55;;;;;;;11.85;4.90;;;;;;;20.17;83.08;95569.44;5134561;28;20073;-86
2021/07/30 16:44:21;;;;;;;9.50;3.75;;;;;;;19.35;83.42;95554.88;5134843;28;20043;-85
2021/07/30 16:46:48;;;;;;;8.70;4.18;;;;;;;18.74;86.41;95561.75;5134285;28;20067;-84
2021/07/30 16:49:13;;;;;;;9.65;4.75;;;;;;;18.46;84.40;95593.00;5133074;28;20240;-83
2021/07/30 16:51:39;;;;;;;12.93;4.93;;;;;;;18.32;87.18;95614.34;5135141;28;20054;-84
2021/07/30 16:54:05;;;;;;;9.38;4.55;;;;;;;18.29;87.86;95635.44;5130692;28;20060;-84
2021/07/30 16:56:30;;;;;;;10.27;4.63;;;;;;;18.23;87.29;95625.97;5113025;28;20036;-84
2021/07/30 16:58:56;;;;;;;11.82;5.28;;;;;;;18.19;89.87;95628.47;5135381;28;20684;-84
2021/07/30 17:01:22;;;;;;;11.88;4.30;;;;;;;18.19;89.34;95631.13;5134527;28;20040;-83
2021/07/30 17:03:52;;;;;;;10.68;4.60;;;;;;;18.19;91.16;95635.63;5115554;28;20078;-84
2021/07/30 17:06:22;;;;;;;12.63;6.20;;;;;;;18.13;91.89;95621.66;5137776;28;20023;-83
2021/07/30 17:08:48;;;;;;;11.35;5.82;;;;;;;18.23;94.00;95588.72;5113548;28;20419;-84
2021/07/30 17:11:14;;;;;;;10.38;4.70;;;;;;;18.30;90.08;95584.56;5133605;28;20124;-84
2021/07/30 17:13:46;;;;;;;9.63;4.00;;;;;;;18.25;87.82;95602.53;5132876;28;20039;-84
2021/07/30 17:16:14;;;;;;;9.25;4.20;;;;;;;18.15;88.25;95595.53;5134724;28;20088;-82
2021/07/30 17:18:40;;;;;;;8.27;3.80;;;;;;;18.09;86.56;95610.81;5119834;28;20035;-83
2021/07/30 17:21:07;;;;;;;8.95;3.88;;;;;;;18.08;86.04;95592.47;5138271;28;20114;-83
2021/07/30 17:23:33;;;;;;;11.80;5.00;;;;;;;17.98;87.69;95601.47;5138082;28;20039;-84
2021/07/30 17:25:59;;;;;;;10.38;4.78;;;;;;;17.79;90.17;95598.91;5137535;27;20027;-83
2021/07/30 17:28:24;;;;;;;12.32;4.68;;;;;;;17.91;90.03;95593.09;5137566;28;20046;-84
2021/07/30 17:30:50;;;;;;;9.15;3.70;;;;;;;17.89;88.94;95579.31;5137199;28;20067;-83
2021/07/30 17:33:18;;;;;;;8.35;2.95;;;;;;;17.89;87.71;95587.28;5130790;28;20035;-83
2021/07/30 17:35:43;;;;;;;;;;;;;;;17.84;86.33;95590.03;5112970;28;20054;-83
2021/07/30 17:38:11;;;;;;;10.25;3.72;;;;;;;17.88;87.27;95592.91;5115289;28;19916;-82
2021/07/30 17:40:37;;;;;;;9.23;4.70;;;;;;;18.04;87.93;95588.84;5137253;28;20019;-81
2021/07/30 17:43:02;;;;;;;9.82;4.25;;;;;;;18.23;89.04;95592.16;5137204;28;20088;-84
2021/07/30 17:45:28;;;;;;;10.90;4.90;;;;;;;18.42;87.84;95586.69;5119588;28;20047;-81
2021/07/30 17:47:56;;;;;;;8.20;3.20;;;;;;;18.60;84.44;95592.94;5137455;28;20028;-86
2021/07/30 17:50:22;;;;;;;8.45;3.10;;;;;;;18.84;86.10;95592.72;5119422;28;20023;-86
2021/07/30 17:52:50;;;;;;;9.30;3.20;;;;;;;18.90;82.53;95596.03;5118301;28;20085;-86
2021/07/30 17:55:23;;;;;;;9.07;4.20;;;;;;;19.03;84.05;95606.63;5129883;28;20043;-86
2021/07/30 17:57:51;;;;;;;11.45;5.43;;;;;;;19.12;83.88;95612.00;5129276;28;20050;-86
2021/07/30 18:00:16;;;;;;;;;;;;;;;19.08;83.48;95601.16;5110449;28;20058;-86
2021/07/30 18:02:42;;;;;;;9.18;3.63;;;;;;;18.99;84.52;95602.97;5129649;28;19969;-86
2021/07/30 18:05:13;;;;;;;8.55;3.53;;;;;;;18.96;85.84;95616.13;5130054;28;20051;-86
2021/07/30 18:07:39;;;;;;;8.75;3.53;;;;;;;18.97;87.13;95621.16;5116717;28;20024;-86
2021/07/30 18:10:05;;;;;;;7.78;3.47;;;;;;;19.01;87.34;95614.13;5137257;28;20030;-85
2021/07/30 18:12:33;;;;;;;10.90;3.33;;;;;;;19.07;87.64;95618.25;5127604;28;20048;-86
2021/07/30 18:15:00;;;;;;;10.60;4.13;;;;;;;19.01;86.61;95630.13;5125695;28;20112;-86
2021/07/30 18:17:26;;;;;;;;;;;;;;;18.79;88.64;95632.78;5125124;28;20036;-86
2021/07/30 18:19:52;;;;;;;16.40;6.53;;;;;;;18.76;85.98;95634.16;5105793;28;20002;-87
2021/07/30 18:22:17;;;;;;;9.25;3.70;;;;;;;18.79;87.24;95632.78;5133374;28;20059;-85
2021/07/30 18:24:45;;;;;;;8.73;3.70;;;;;;;18.62;87.67;95622.75;5125007;28;20067;-85
2021/07/30 18:27:13;;;;;;;;;;;;;;;18.54;88.73;95618.13;5107630;28;20028;-83
2021/07/30 18:29:42;;;;;;;;;;;;;;;18.33;88.58;95615.91;5106878;28;19955;-84
2021/07/30 18:32:08;;;;;;;10.30;3.80;;;;;;;18.29;88.27;95614.13;5125091;28;19924;-79
2021/07/30 18:34:34;;;;;;;8.70;3.72;;;;;;;18.24;89.43;95615.06;5121699;28;20127;-79
2021/07/30 18:36:59;;;;;;;13.70;5.72;;;;;;;18.22;90.91;95627.06;5121905;28;20115;-80
2021/07/30 18:39:25;;;;;;;12.27;4.20;;;;;;;18.16;90.60;95628.25;5121428;28;20070;-80
2021/07/30 18:41:51;;;;;;;8.70;3.90;;;;;;;18.22;91.20;95635.06;5120865;28;20057;-79
2021/07/30 18:44:16;;;;;;;9.60;3.95;;;;;;;18.24;90.81;95628.38;5122004;28;20043;-79
2021/07/30 18:46:44;;;;;;;9.48;3.60;;;;;;;18.14;89.88;95638.44;5103188;28;20055;-79
2021/07/30 18:49:09;;;;;;;8.82;3.92;;;;;;;18.15;91.09;95635.47;5121148;28;20070;-80
2021/07/30 18:54:59;;;;;;;9.75;4.05;;;;;;;18.10;91.23;95643.56;5123817;28;20131;-80
2021/07/30 18:57:25;;;;;;;9.88;3.80;;;;;;;18.01;92.52;95646.09;5104302;28;20066;-80
2021/07/30 18:59:51;;;;;;;9.23;3.80;;;;;;;18.02;92.31;95645.00;5120867;28;20098;-80
2021/07/30 19:02:18;;;;;;;11.88;4.40;;;;;;;17.93;91.94;95649.47;5121562;28;20304;-80
2021/07/30 19:04:44;;;;;;;10.00;4.03;;;;;;;17.76;91.50;95650.06;5121282;28;20072;-79
2021/07/30 19:07:10;;;;;;;9.45;3.78;;;;;;;17.71;92.32;95650.13;5102864;28;20039;-82
2021/07/30 19:09:35;;;;;;;9.57;3.88;;;;;;;17.71;92.68;95655.44;5121755;28;20032;-81
2021/07/30 19:12:02;;;;;;;10.88;4.88;;;;;;;17.63;93.44;95665.97;5125756;28;20044;-80
2021/07/30 19:14:27;;;;;;;11.57;4.18;;;;;;;17.56;92.81;95672.47;5121498;28;20043;-79
2021/07/30 19:16:53;;;;;;;9.45;3.88;;;;;;;17.58;93.68;95672.94;5102275;28;20209;-82
2021/07/30 19:19:20;;;;;;;10.48;4.22;;;;;;;17.64;94.02;95680.84;5119392;28;20046;-79
2021/07/30 19:21:48;;;;;;;12.50;5.00;;;;;;;17.65;93.43;95677.09;5120113;28;20056;-79
2021/07/30 19:24:16;;;;;;;9.88;4.22;;;;;;;17.75;93.27;95692.91;5120167;28;20588;-80
2021/07/30 19:26:42;;;;;;;10.48;4.68;;;;;;;17.86;92.81;95696.94;5121032;28;20036;-81
2021/07/30 19:29:11;;;;;;;12.98;5.60;;;;;;;17.93;92.07;95702.69;5101752;28;20415;-79
2021/07/30 19:31:36;;;;;;;10.68;4.50;;;;;;;17.96;92.67;95711.94;5120796;28;20061;-80
2021/07/30 19:34:02;;;;;;;11.27;4.85;;;;;;;17.98;91.98;95713.25;5124724;28;20130;-79
2021/07/30 19:36:29;;;;;;;9.60;4.13;;;;;;;17.90;92.24;95708.59;5123500;28;20089;-80
2021/07/30 19:38:55;;;;;;;11.03;4.13;;;;;;;17.75;92.68;95709.66;5124655;28;20402;-80
2021/07/30 19:41:20;;;;;;;11.98;4.63;;;;;;;17.88;92.76;95716.09;5128030;28;20047;-80
2021/07/30 19:43:46;;;;;;;10.25;4.22;;;;;;;17.97;93.01;95708.19;5125040;28;20111;-79
2021/07/30 19:46:12;;;;;;;9.32;3.72;;;;;;;18.08;92.38;95714.91;5122706;28;20032;-80
2021/07/30 19:48:40;;;;;;;11.82;4.25;;;;;;;18.08;91.47;95721.03;5123461;28;20039;-80
2021/07/30 19:51:05;;;;;;;;;;;;;;;18.10;91.21;95720.75;5123099;28;20092;-80
2021/07/30 19:53:33;;;;;;;11.98;4.55;;;;;;;18.09;91.17;95717.28;5122184;28;19920;-80
2021/07/30 19:55:59;;;;;;;10.55;4.65;;;;;;;18.08;91.62;95710.41;5127853;28;20703;-81
2021/07/30 19:58:27;;;;;;;12.90;5.00;;;;;;;18.08;91.33;95707.72;5123970;28;20043;-80
2021/07/30 20:00:53;;;;;;;10.57;5.35;;;;;;;18.14;91.14;95707.63;5123531;28;20448;-80
2021/07/30 20:03:19;;;;;;;11.85;5.30;;;;;;;18.15;90.62;95714.53;5105980;28;20459;-79
2021/07/30 20:05:44;;;;;;;11.02;5.10;;;;;;;18.23;90.70;95711.94;5105609;28;20046;-79
2021/07/30 20:08:12;;;;;;;10.32;5.13;;;;;;;18.24;90.24;95712.75;5129814;28;20078;-79
2021/07/30 20:10:40;;;;;;;;;;;;;;;18.27;90.16;95706.84;5128058;28;20045;-80
2021/07/30 20:13:06;;;;;;;9.60;4.05;;;;;;;18.17;90.12;95715.03;5128528;28;19919;-79
2021/07/30 20:15:32;;;;;;;10.48;4.55;;;;;;;18.13;90.46;95711.38;5125994;28;20103;-79
2021/07/30 20:17:57;;;;;;;9.23;4.10;;;;;;;18.19;90.07;95713.66;5126893;28;20055;-81
2021/07/30 20:20:23;;;;;;;10.55;4.30;;;;;;;18.15;90.29;95717.97;5126868;28;20042;-82
2021/07/30 20:22:51;;;;;;;9.57;4.15;;;;;;;18.29;89.77;95731.28;5125984;28;20049;-79
2021/07/30 20:25:16;;;;;;;;;;;;;;;18.22;90.03;95741.53;5126205;28;20114;-79
2021/07/30 20:27:43;;;;;;;11.32;3.80;;;;;;;18.20;89.68;95733.06;5131390;28;19922;-81
2021/07/30 20:30:10;;;;;;;9.53;4.10;;;;;;;18.23;89.53;95727.94;5108355;28;20048;-79
2021/07/30 20:32:36;;;;;;;11.43;4.20;;;;;;;18.31;89.30;95732.56;5125456;28;20505;-80
2021/07/30 20:35:02;;;;;;;10.32;4.55;;;;;;;18.23;89.63;95733.25;5107667;28;20056;-79
2021/07/30 20:37:27;;;;;;;10.18;4.43;;;;;;;18.13;90.05;95722.78;5125438;28;20042;-78
2021/07/30 20:39:53;;;;;;;10.70;4.32;;;;;;;18.21;89.70;95726.66;5105179;28;20148;-79
2021/07/30 20:42:19;;;;;;;10.52;4.95;;;;;;;18.00;90.43;95735.03;5123516;28;20040;-81
2021/07/30 20:44:46;;;;;;;12.40;5.50;;;;;;;18.14;90.04;95736.91;5123402;28;20104;-80
2021/07/30 20:47:11;;;;;;;11.47;4.97;;;;;;;18.00;90.31;95732.34;5122760;28;20104;-79
2021/07/30 20:49:37;;;;;;;11.23;4.97;;;;;;;18.01;90.86;95727.81;5123960;28;20040;-80
2021/07/30 20:52:04;;;;;;;10.38;4.20;;;;;;;18.10;89.91;95724.19;5104828;28;20142;-77
2021/07/30 20:54:29;;;;;;;11.32;4.70;;;;;;;18.10;90.05;95721.53;5104142;28;20039;-77
2021/07/30 20:59:32;;;;;;;12.52;5.65;;;;;;;18.01;90.39;95704.66;5033809;28;20046;-76
2021/07/30 21:02:02;;;;;;;13.30;5.93;;;;;;;18.09;90.34;95703.19;5037094;28;20406;-74
2021/07/30 21:04:27;;;;;;;11.27;5.63;;;;;;;18.10;90.40;95704.78;5044329;28;20045;-75
2021/07/30 21:06:53;;;;;;;11.95;4.97;;;;;;;18.08;90.56;95710.41;5045335;28;20048;-75
2021/07/30 21:09:18;;;;;;;11.60;4.65;;;;;;;18.14;90.40;95703.09;5040670;28;20037;-76
2021/07/30 21:11:46;;;;;;;12.70;5.00;;;;;;;18.10;90.54;95702.91;5037826;28;20063;-77
2021/07/30 21:14:13;;;;;;;11.70;5.13;;;;;;;18.06;90.87;95699.25;5036041;28;20087;-75
2021/07/30 21:16:39;;;;;;;11.63;5.00;;;;;;;18.03;91.26;95688.41;5034813;28;20136;-76
2021/07/30 21:19:06;;;;;;;12.02;5.65;;;;;;;18.19;90.48;95694.19;5035890;28;20168;-75
2021/07/30 21:21:32;;;;;;;13.70;5.93;;;;;;;18.01;91.08;95691.34;5034950;28;20076;-77
2021/07/30 21:23:57;;;;;;;16.70;5.70;;;;;;;18.02;91.22;95690.25;5034764;28;20274;-76
2021/07/30 21:26:23;;;;;;;14.30;5.45;;;;;;;18.03;91.32;95680.44;5035903;28;20289;-76
2021/07/30 21:28:48;;;;;;;11.55;5.65;;;;;;;17.98;91.50;95668.00;5035415;28;20129;-76
2021/07/30 21:31:14;;;;;;;16.67;6.55;;;;;;;18.20;92.08;95675.28;5042928;28;20505;-76
2021/07/30 21:33:40;;;;;;;17.73;6.53;;;;;;;18.13;91.39;95679.41;5047861;28;20069;-75
2021/07/30 21:36:07;;;;;;;16.63;5.93;;;;;;;18.28;90.78;95698.53;5051764;28;20052;-76
2021/07/30 21:38:33;;;;;;;13.20;5.90;;;;;;;18.30;89.70;95711.59;5042481;28;20148;-76
2021/07/30 21:40:59;;;;;;;13.80;5.82;;;;;;;18.06;91.25;95717.88;5037021;28;20096;-76
2021/07/30 21:43:24;;;;;;;11.80;5.57;;;;;;;17.92;92.22;95717.09;5036308;28;20037;-76
2021/07/30 21:45:52;;;;;;;14.70;6.30;;;;;;;17.84;92.75;95718.53;5035646;28;20442;-76
2021/07/30 21:48:17;;;;;;;19.85;7.95;;;;;;;17.81;92.92;95721.81;5036171;28;20041;-76
2021/07/30 21:50:43;;;;;;;17.60;8.02;;;;;;;17.84;93.47;95723.06;5034626;28;20034;-76
2021/07/30 21:53:10;;;;;;;13.75;7.10;;;;;;;17.70;93.92;95728.31;5034767;28;20047;-77
2021/07/30 21:55:37;;;;;;;15.65;7.80;;;;;;;17.71;94.19;95731.78;5034228;28;20041;-76
2021/07/30 21:58:06;;;;;;;19.25;7.32;;;;;;;17.84;93.89;95733.72;5034896;28;20477;-76
2021/07/30 22:00:31;;;;;;;15.80;6.75;;;;;;;17.86;93.45;95728.88;5035370;28;20064;-76
2021/07/30 22:03:00;;;;;;;13.00;6.88;;;;;;;18.00;93.14;95735.03;5054489;28;20051;-76
2021/07/30 22:05:26;;;;;;;15.35;7.22;;;;;;;17.86;93.65;95736.84;5052948;28;20050;-76
2021/07/30 22:07:52;;;;;;;14.13;6.90;;;;;;;17.89;93.69;95738.94;5044621;28;20045;-76
2021/07/30 22:10:20;;;;;;;14.82;7.35;;;;;;;17.92;93.91;95738.38;5035297;28;20061;-77
2021/07/30 22:12:46;;;;;;;17.25;7.70;;;;;;;17.85;94.26;95748.59;5034153;28;20049;-77
2021/07/30 22:15:13;;;;;;;16.85;7.82;;;;;;;17.95;93.91;95751.06;5032953;28;20045;-75
2021/07/30 22:17:39;;;;;;;16.33;7.60;;;;;;;17.96;94.12;95742.00;5033366;28;20082;-75
2021/07/30 22:20:05;;;;;;;17.77;8.13;;;;;;;18.03;93.64;95745.09;5034745;28;20096;-76
2021/07/30 22:22:34;;;;;;;17.50;8.07;;;;;;;17.96;93.98;95749.19;5034132;28;20053;-76
2021/07/30 22:24:59;;;;;;;17.50;8.77;;;;;;;17.93;93.71;95750.59;5034548;28;20046;-77
2021/07/30 22:27:28;;;;;;;17.17;8.55;;;;;;;17.96;93.46;95749.97;5035397;28;20045;-77
2021/07/30 22:29:56;;;;;;;15.45;7.72;;;;;;;17.99;93.30;95762.72;5043650;28;20109;-76
2021/07/30 22:32:22;;;;;;;14.93;8.20;;;;;;;17.92;93.37;95753.53;5043692;28;20045;-75
2021/07/30 22:34:47;;;;;;;17.17;8.40;;;;;;;18.02;92.41;95754.13;5036386;28;20055;-76
2021/07/30 22:37:13;;;;;;;16.27;8.20;;;;;;;17.94;92.76;95741.53;5037416;28;20053;-77
2021/07/30 22:39:38;;;;;;;14.95;7.78;;;;;;;17.92;92.06;95751.69;5033073;28;20132;-75
2021/07/30 22:42:22;;;;;;;17.27;8.27;;;;;;;17.89;92.60;95760.22;5033384;28;20354;-77
2021/07/30 22:44:49;;;;;;;18.63;7.82;;;;;;;17.80;92.39;95764.63;5035291;28;20038;-76
2021/07/30 22:47:14;;;;;;;16.35;8.20;;;;;;;17.76;92.50;95769.78;5036421;28;20107;-77
2021/07/30 22:49:40;;;;;;;15.40;7.55;;;;;;;17.72;92.68;95763.44;5036318;28;20052;-76
2021/07/30 22:52:06;;;;;;;13.98;7.50;;;;;;;17.81;91.51;95764.38;5034395;28;20093;-76
2021/07/30 22:54:32;;;;;;;13.40;6.93;;;;;;;17.61;92.50;95779.84;5035294;28;20453;-77
2021/07/30 22:56:58;;;;;;;11.95;6.40;;;;;;;17.56;91.88;95772.72;5017134;28;20046;-76
2021/07/30 22:59:23;;;;;;;15.40;7.07;;;;;;;17.62;91.22;95782.19;5035360;28;20103;-78
2021/07/30 23:01:53;;;;;;;13.52;6.90;;;;;;;17.77;90.68;95789.19;5036166;28;20038;-77
2021/07/30 23:04:18;;;;;;;14.95;6.47;;;;;;;17.77;90.30;95784.66;5036012;28;20048;-77
2021/07/30 23:06:44;;;;;;;12.25;6.18;;;;;;;17.68;90.54;95780.25;5040342;28;20136;-77
2021/07/30 23:09:10;;;;;;;14.25;5.72;;;;;;;17.65;90.29;95783.47;5027101;28;20053;-77
2021/07/30 23:11:35;;;;;;;17.45;6.32;;;;;;;17.57;90.88;95791.03;5044744;28;20068;-75
2021/07/30 23:14:01;;;;;;;14.85;6.70;;;;;;;17.59;90.84;95788.88;5037299;28;20048;-75
2021/07/30 23:16:26;;;;;;;10.80;6.20;;;;;;;17.58;90.70;95789.97;5046774;28;20046;-76
2021/07/30 23:18:53;;;;;;;16.77;6.70;;;;;;;17.56;91.09;95791.34;5043100;28;20056;-77
2021/07/30 23:21:19;;;;;;;13.57;6.93;;;;;;;17.54;90.94;95799.63;5044922;28;20046;-77
2021/07/30 23:23:45;;;;;;;13.75;6.82;;;;;;;17.67;90.83;95799.94;5043784;28;20037;-77
2021/07/30 23:26:13;;;;;;;12.20;6.40;;;;;;;17.65;90.63;95799.44;5043175;28;20065;-76
2021/07/30 23:28:42;;;;;;;14.13;6.80;;;;;;;17.64;90.53;95803.97;5043041;28;20069;-76
2021/07/30 23:31:11;;;;;;;12.57;6.00;;;;;;;17.66;90.58;95796.50;5044030;28;20050;-76
2021/07/30 23:33:36;;;;;;;13.90;7.13;;;;;;;17.64;90.28;95790.66;5041760;28;20095;-76
2021/07/30 23:36:04;;;;;;;12.88;6.40;;;;;;;17.68;90.52;95797.00;5042080;28;20042;-76
2021/07/30 23:38:32;;;;;;;;;;;;;;;17.77;89.97;95791.84;5044540;28;20073;-76
2021/07/30 23:41:04;;;;;;;;;;;;;;;17.68;90.38;95796.22;5042948;28;19939;-75
2021/07/30 23:43:30;;;;;;;15.07;6.72;;;;;;;17.70;90.23;95804.69;5042850;28;20395;-76
2021/07/30 23:45:55;;;;;;;18.48;6.75;;;;;;;17.65;90.75;95804.75;5043798;28;20068;-77
2021/07/30 23:48:21;;;;;;;14.93;6.68;;;;;;;17.55;91.11;95803.84;5040413;28;20048;-76
2021/07/30 23:50:46;;;;;;;15.13;6.85;;;;;;;17.63;90.80;95804.25;5039449;28;20041;-75
2021/07/30 23:53:15;;;;;;;14.13;6.65;;;;;;;17.58;91.00;95808.56;5055137;28;20048;-77
2021/07/30 23:55:42;;;;;;;14.93;6.50;;;;;;;17.56;91.40;95808.09;5051217;28;20045;-75
2021/07/30 23:58:08;;;;;;;14.95;7.10;;;;;;;17.53;91.42;95811.31;5040064;28;20045;-76
